• Join FlightAware (Why Join?)
  • Login
  • US Flag 
03:13AM EDT


 

Airport Tracker/Info


-or-


 

Live Flight TrackerFlight Track Log ✈ DAL61 ✈ 06-May-2013 ✈ KLGA - KATL

Flight Track Log - Related Links

Times and Time Zones

All times are in EDT time to prevent confusion due to time zone crossing. See the DAL61 flight status page for this flight to view local times or setup timezone preferences in your user account.

Time Position Orientation Groundspeed Altitude Reporting Facility
EDT Latitude Longitude Course Direction KTS MPH feet Rate Location/Type
06:31PM 40.7667 -73.8500 270° West 138 159 1,300  Level New York TRACON
06:32PM 40.7333 -73.8000 131° Southeast 221 254 4,100 2,880 Climbing New York TRACON
06:33PM 40.7833 -73.8000 360° North 256 295 7,100 2,400 Climbing New York TRACON
06:34PM 40.6887 -74.2679 258° West  Level FlightAware Approximate
06:34PM 40.8167 -73.9000 294° West 290 334 8,900  Level New York TRACON
06:35PM 40.6647 -74.4130 259° West  Level FlightAware Approximate
06:35PM 40.8333 -74.0000 282° West 295 339 10,900  Level New York TRACON
06:36PM 40.6423 -74.5585 259° West  Level FlightAware Approximate
06:36PM 40.8333 -74.1167 270° West 309 356 13,800  Level New York TRACON
06:37PM 40.6167 -74.6948 270° West  Level FlightAware Approximate
06:38PM 40.7667 -74.3500 249° West 334 384 16,300  Level New York TRACON
06:42PM 40.6474 -74.5476 259° West  Level Estimated
06:43PM 40.6142 -74.8444 259° West 347 399 23,800  Level New York Center
06:44PM 40.5764 -74.9706 249° West 358 412 26,000 2,160 Climbing New York Center
06:45PM 40.5244 -75.0875 240° Southwest 368 423 28,200 2,160 Climbing New York Center
06:46PM 40.4558 -75.1950 230° Southwest 382 440 30,300 1,620 Climbing New York Center
06:47PM 40.3847 -75.3078 230° Southwest 393 452 31,500 1,020 Climbing New York Center
06:48PM 40.3136 -75.4228 231° Southwest 410 472 32,400 840 Climbing New York Center
06:49PM 40.2336 -75.5481 230° Southwest 434 499 33,300 1,440 Climbing New York Center
06:51PM 40.0972 -75.8156 236° Southwest 452 520 36,700 1,500 Climbing New York Center
06:53PM 39.9753 -76.0597 237° Southwest 448 516 38,900 1,080 Climbing Washington Center
06:54PM 39.9058 -76.1892 235° Southwest 448 516 39,700 360 Climbing Washington Center
06:56PM 39.7689 -76.4553 236° Southwest 443 510 40,000  Climbing Washington Center
06:58PM 39.6335 -76.6899 235° Southwest  Level FlightAware Approximate
06:59PM 39.5592 -76.8486 235° Southwest 448 516 40,000  Level Washington Center
07:00PM 39.4889 -76.9817 236° Southwest 448 516 40,000  Level Washington Center
07:01PM 39.3939 -77.0819 219° Southwest 443 510 40,000  Level Washington Center
07:02PM 39.3031 -77.1819 220° Southwest 436 502 40,000  Level Washington Center
07:03PM 39.2100 -77.2764 218° Southwest 436 502 40,000  Level Washington Center
07:04PM 39.1169 -77.3761 220° Southwest 436 502 40,000  Level Washington Center
07:05PM 39.0239 -77.4700 218° Southwest 436 502 40,000  Level Washington Center
07:06PM 38.9283 -77.5689 219° Southwest 439 505 40,000  Level Washington Center
07:07PM 38.8456 -77.6572 220° Southwest 439 505 40,000  Level Washington Center
07:08PM 38.7500 -77.7531 218° Southwest 433 498 40,000  Level Washington Center
07:09PM 38.6586 -77.8489 219° Southwest 441 507 40,000  Level Washington Center
07:10PM 38.5814 -77.9661 230° Southwest 428 493 40,000  Level Washington Center
07:11PM 38.5122 -78.0858 234° Southwest 433 498 40,000  Level Washington Center
07:12PM 38.4386 -78.2106 233° Southwest 433 498 40,000  Level Washington Center
07:13PM 38.3672 -78.3353 234° Southwest 438 504 40,000  Level Washington Center
07:15PM 38.2258 -78.5786 234° Southwest 438 504 40,000 120 Level Washington Center
07:16PM 38.1539 -78.6969 232° Southwest 438 504 40,500 180 Climbing Washington Center
07:18PM 38.0240 -78.9037 231° Southwest  Level FlightAware Approximate
07:20PM 37.8439 -79.1944 228° Southwest 449 517 41,000  Level Washington Center
07:21PM 37.7589 -79.3114 227° Southwest 449 517 41,000  Level Washington Center
07:22PM 37.6828 -79.4150 227° Southwest 455 524 41,000  Level Washington Center
07:24PM 37.5103 -79.6472 227° Southwest 454 522 41,000  Level Washington Center
07:25PM 37.5310 -79.5926 228° Southwest  Level FlightAware Approximate
07:25PM 37.4371 -79.7448 227° Southwest  Level FlightAware Approximate
07:26PM 37.3414 -79.8814 227° Southwest 464 534 41,000  Level Washington Center
07:27PM 37.1933 -80.0786 227° Southwest 467 537 41,000  Level Atlanta Center
07:28PM 37.1114 -80.1869 227° Southwest 447 514 41,000  Level Atlanta Center
07:29PM 37.0294 -80.2975 227° Southwest 442 509 41,000  Level Atlanta Center
07:31PM 36.9383 -80.4156 224° Southwest  Level Estimated
07:31PM 36.8589 -80.5286 224° Southwest 431 496 41,000  Level Atlanta Center
07:32PM 36.7764 -80.6361 226° Southwest 436 502 41,000  Level Atlanta Center
07:33PM 36.6981 -80.7428 228° Southwest 418 481 41,000  Level Atlanta Center
07:34PM 36.6153 -80.8497 226° Southwest 424 488 41,000  Level Atlanta Center
07:35PM 36.5328 -80.9617 227° Southwest 429 494 41,000  Level Atlanta Center
07:36PM 36.4500 -81.0706 227° Southwest 435 501 41,000  Level Atlanta Center
07:37PM 36.3772 -81.1686 227° Southwest 430 495 41,000  Level Atlanta Center
07:38PM 36.2922 -81.2800 227° Southwest 435 501 41,000  Level Atlanta Center
07:39PM 36.2089 -81.3883 226° Southwest 435 501 41,000  Level Atlanta Center
07:40PM 36.1217 -81.5017 226° Southwest 435 501 41,000  Level Atlanta Center
07:41PM 36.0364 -81.6122 226° Southwest 448 516 41,000  Level Atlanta Center
07:42PM 35.9489 -81.7250 226° Southwest 448 516 41,000  Level Atlanta Center
07:43PM 35.8614 -81.8403 227° Southwest 459 528 41,000  Level Atlanta Center
07:44PM 35.7736 -81.9528 226° Southwest 459 528 41,000 -60 Level Atlanta Center
07:45PM 35.6856 -82.0625 225° Southwest 464 534 40,900 -780 Descending Atlanta Center
07:47PM 35.5850 -82.1650 220° Southwest  Level FlightAware Approximate
07:47PM 35.5117 -82.2833 220° Southwest 453 521 38,700  Level Atlanta Center
07:48PM 35.4194 -82.4000 226° Southwest 453 521 37,900 -720 Descending Atlanta Center
07:49PM 35.3353 -82.5086 226° Southwest 447 514 37,300 -960 Descending Atlanta Center
07:51PM 35.2409 -82.6191 224° Southwest  Level FlightAware Approximate
07:51PM 35.1708 -82.7125 224° Southwest 430 495 35,100  Level Atlanta Center
07:52PM 35.0925 -82.8103 226° Southwest 424 488 33,000 -1,740 Descending Atlanta Center
07:53PM 35.0203 -82.8975 225° Southwest 412 474 31,700 -1,080 Descending Atlanta Center
07:54PM 34.9458 -82.9897 225° Southwest 407 468 30,900 -840 Descending Atlanta Center
07:55PM 34.8717 -83.0792 225° Southwest 388 447 30,100 -1,800 Descending Atlanta Center
07:56PM 34.7972 -83.1711 225° Southwest 379 436 27,400 -2,220 Descending Atlanta Center
07:57PM 34.7225 -83.2656 226° Southwest 391 450 25,700 -1,620 Descending Atlanta Center
07:59PM 34.6102 -83.3566 220° Southwest  Level FlightAware Approximate
07:59PM 34.5525 -83.4283 220° Southwest 392 451 22,700  Level Atlanta Center
08:01PM 34.4414 -83.5178 214° Southwest  Level FlightAware Approximate
08:02PM 34.3167 -83.6333 224° Southwest 345 397 17,200  Level Atlanta TRACON
08:02PM 34.3050 -83.6514 232° Southwest 357 411 16,800 -1,800 Descending Atlanta Center
08:03PM 34.2300 -83.7172 216° Southwest 347 399 14,900 -1,920 Descending Atlanta Center
08:04PM 34.1572 -83.7828 217° Southwest 341 392 13,000 -1,500 Descending Atlanta Center
08:05PM 34.0864 -83.8456 216° Southwest 330 380 12,000 -840 Descending Atlanta Center
08:06PM 34.0500 -83.8833 221° Southwest 314 361 11,700 -1,140 Descending Atlanta TRACON
08:07PM 33.9667 -83.9500 214° Southwest 311 358 10,100 -960 Descending Atlanta TRACON
08:08PM 33.8512 -84.0792 224° Southwest  Level FlightAware Approximate
08:08PM 33.8672 -83.9564 183° South 299 344 9,500  Level Atlanta Center
08:09PM 33.7922 -83.9639 185° South 288 331 8,200 -780 Descending Atlanta Center
08:10PM 33.7233 -83.9614 178° South 268 308 8,000 -540 Descending Atlanta Center
08:11PM 33.6669 -83.9614 180° South 228 262 7,200 -540 Descending Atlanta Center
08:14PM 33.6333 -84.1000 254° West 177 204 6,100 -600 Descending Atlanta TRACON
08:15PM 33.6333 -84.1667 270° West 189 217 5,100 -1,020 Descending Atlanta TRACON
08:16PM 33.6333 -84.2333 270° West 187 215 4,000 -1,020 Descending Atlanta TRACON
08:17PM 33.6333 -84.2833 270° West 183 211 3,100 -1,140 Descending Atlanta TRACON